createdAt,value
2022-11-25T00:01:16.445Z,7.10
2022-11-25T00:03:44.815Z,7.97
2022-11-25T00:06:20.800Z,6.73
2022-11-25T00:08:49.724Z,7.33
2022-11-25T00:11:18.416Z,6.57
2022-11-25T00:13:46.697Z,7.30
2022-11-25T00:16:16.780Z,7.57
2022-11-25T00:18:49.078Z,8.93
2022-11-25T00:21:18.848Z,7.13
2022-11-25T00:23:51.787Z,8.00
2022-11-25T00:26:19.619Z,8.93
2022-11-25T00:28:47.626Z,7.33
2022-11-25T00:31:20.986Z,6.90
2022-11-25T00:33:48.371Z,8.20
2022-11-25T00:36:15.630Z,7.67
2022-11-25T00:38:42.944Z,7.43
2022-11-25T00:41:29.094Z,8.23
2022-11-25T00:44:15.501Z,7.47
2022-11-25T00:46:42.828Z,9.00
2022-11-25T00:49:10.183Z,7.00
2022-11-25T00:51:37.447Z,7.70
2022-11-25T00:54:04.827Z,7.23
2022-11-25T00:56:32.202Z,6.83
2022-11-25T00:58:59.494Z,6.90
2022-11-25T01:01:26.951Z,8.50
2022-11-25T01:03:54.455Z,7.83
2022-11-25T01:06:22.144Z,6.43
2022-11-25T01:08:49.716Z,7.10
2022-11-25T01:11:20.035Z,6.40
2022-11-25T01:13:47.411Z,6.17
2022-11-25T01:16:17.933Z,6.40
2022-11-25T01:18:47.298Z,6.27
2022-11-25T01:21:20.263Z,7.77
2022-11-25T01:23:48.544Z,6.90
2022-11-25T01:26:18.999Z,6.70
2022-11-25T01:28:46.752Z,6.73
2022-11-25T01:31:18.990Z,7.80
2022-11-25T01:33:47.216Z,7.30
2022-11-25T01:36:18.430Z,7.13
2022-11-25T01:38:49.371Z,6.87
2022-11-25T01:41:16.687Z,6.30
2022-11-25T01:43:44.154Z,7.33
2022-11-25T01:46:25.230Z,6.63
2022-11-25T01:48:56.515Z,5.67
2022-11-25T01:51:26.654Z,6.27
2022-11-25T01:53:57.165Z,5.90
2022-11-25T01:56:26.318Z,5.43
2022-11-25T01:58:53.895Z,5.80
2022-11-25T02:01:21.897Z,5.80
2022-11-25T02:03:52.565Z,6.30
2022-11-25T02:06:24.216Z,5.87
2022-11-25T02:08:55.647Z,6.43
2022-11-25T02:11:25.516Z,4.97
2022-11-25T02:13:53.951Z,5.80
2022-11-25T02:16:21.354Z,5.27
2022-11-25T02:18:50.601Z,5.50
2022-11-25T02:21:25.689Z,7.03
2022-11-25T02:23:53.347Z,4.93
2022-11-25T02:26:21.139Z,6.73
2022-11-25T02:28:50.253Z,4.83
2022-11-25T02:31:21.479Z,5.40
2022-11-25T02:33:48.676Z,5.53
2022-11-25T02:36:19.906Z,5.93
2022-11-25T02:38:47.262Z,5.30
2022-11-25T02:41:26.581Z,6.00
2022-11-25T02:43:59.342Z,5.30
2022-11-25T02:46:28.190Z,5.07
2022-11-25T02:49:12.480Z,6.03
2022-11-25T02:51:44.733Z,7.00
2022-11-25T02:54:14.170Z,6.60
2022-11-25T02:56:41.725Z,6.13
2022-11-25T02:59:09.590Z,6.93
2022-11-25T03:01:38.327Z,6.17
2022-11-25T03:04:07.312Z,6.47
2022-11-25T03:07:46.556Z,5.93
2022-11-25T03:10:16.724Z,6.03
2022-11-25T03:12:44.441Z,7.10
2022-11-25T03:15:12.156Z,5.20
2022-11-25T03:17:40.025Z,5.50
2022-11-25T03:20:08.654Z,5.83
2022-11-25T03:22:36.091Z,4.67
2022-11-25T03:25:05.221Z,4.93
2022-11-25T03:27:34.511Z,5.33
2022-11-25T03:30:02.965Z,5.43
2022-11-25T03:32:30.767Z,5.30
2022-11-25T03:34:58.224Z,5.80
2022-11-25T03:37:25.673Z,4.97
2022-11-25T03:39:53.164Z,5.10
2022-11-25T03:42:20.678Z,5.00
2022-11-25T03:44:47.635Z,5.17
2022-11-25T03:47:15.011Z,5.33
2022-11-25T03:49:42.731Z,4.97
2022-11-25T03:52:11.002Z,4.67
2022-11-25T03:54:38.569Z,4.70
2022-11-25T03:57:20.757Z,4.63
2022-11-25T03:59:48.183Z,5.10
2022-11-25T04:02:15.702Z,4.47
2022-11-25T04:04:43.171Z,4.50
2022-11-25T04:07:10.601Z,5.53
2022-11-25T04:09:38.152Z,4.07
2022-11-25T04:12:26.080Z,4.23
2022-11-25T04:14:58.261Z,4.30
2022-11-25T04:17:25.924Z,4.10
2022-11-25T04:19:53.327Z,4.33
2022-11-25T04:22:20.794Z,4.50
2022-11-25T04:24:49.632Z,3.93
2022-11-25T04:27:22.254Z,3.90
2022-11-25T04:29:49.824Z,5.57
2022-11-25T04:32:20.322Z,4.00
2022-11-25T04:34:47.763Z,5.37
2022-11-25T04:37:15.215Z,3.87
2022-11-25T04:39:43.804Z,4.20
2022-11-25T04:42:33.136Z,4.87
2022-11-25T04:47:55.666Z,4.40
2022-11-25T04:50:24.254Z,4.43
2022-11-25T04:53:06.775Z,4.50
2022-11-25T04:55:34.140Z,5.23
2022-11-25T04:58:05.199Z,4.67
2022-11-25T05:00:34.350Z,6.37
2022-11-25T05:03:02.437Z,5.50
2022-11-25T05:05:31.736Z,4.93
2022-11-25T05:07:59.797Z,5.27
2022-11-25T05:10:27.229Z,6.10
2022-11-25T05:12:54.588Z,5.80
2022-11-25T05:15:22.587Z,5.80
2022-11-25T05:17:49.960Z,7.13
2022-11-25T05:20:26.228Z,5.60
2022-11-25T05:22:53.456Z,4.83
2022-11-25T05:25:24.531Z,6.90
2022-11-25T05:28:05.298Z,5.27
2022-11-25T05:30:32.358Z,5.30
2022-11-25T05:32:59.450Z,4.83
2022-11-25T05:35:26.905Z,5.30
2022-11-25T05:37:54.459Z,5.60
2022-11-25T05:40:22.226Z,5.33
2022-11-25T05:43:12.523Z,6.15
2022-11-25T05:45:41.223Z,6.17
2022-11-25T05:48:11.044Z,5.77
2022-11-25T05:50:38.917Z,5.07
2022-11-25T05:53:22.195Z,5.77
2022-11-25T05:56:00.333Z,4.77
2022-11-25T05:58:45.249Z,4.33
2022-11-25T06:01:15.160Z,5.60
2022-11-25T06:03:42.703Z,5.40
2022-11-25T06:06:11.230Z,5.60
2022-11-25T06:08:39.692Z,5.50
2022-11-25T06:11:13.868Z,5.90
2022-11-25T06:13:41.615Z,7.53
2022-11-25T06:16:17.604Z,6.73
2022-11-25T06:18:49.169Z,4.33
2022-11-25T06:21:17.441Z,5.57
2022-11-25T06:23:46.108Z,5.50
2022-11-25T06:26:18.531Z,6.47
2022-11-25T06:28:46.107Z,5.73
2022-11-25T06:31:18.862Z,5.93
2022-11-25T06:33:55.370Z,5.53
2022-11-25T06:36:23.160Z,5.27
2022-11-25T06:38:52.575Z,5.00
2022-11-25T06:41:20.739Z,6.60
2022-11-25T06:43:48.112Z,6.43
2022-11-25T06:46:24.176Z,5.40
2022-11-25T06:48:52.201Z,4.73
2022-11-25T06:51:19.249Z,6.13
2022-11-25T06:53:46.633Z,5.70
2022-11-25T06:56:22.285Z,6.07
2022-11-25T06:58:51.910Z,6.07
2022-11-25T07:01:21.575Z,5.50
2022-11-25T07:03:53.429Z,10.77
2022-11-25T07:06:21.358Z,5.47
2022-11-25T07:08:48.690Z,5.60
2022-11-25T07:11:30.491Z,6.40
2022-11-25T07:14:03.003Z,6.37
2022-11-25T07:16:31.486Z,6.60
2022-11-25T07:19:03.050Z,5.73
2022-11-25T07:21:31.976Z,6.17
2022-11-25T07:24:01.239Z,6.60
2022-11-25T07:26:30.720Z,6.53
2022-11-25T07:29:03.820Z,6.33
2022-11-25T07:31:39.357Z,6.30
2022-11-25T07:34:18.000Z,5.40
2022-11-25T07:36:46.446Z,8.10
2022-11-25T07:39:19.621Z,6.23
2022-11-25T07:41:50.218Z,6.03
2022-11-25T07:44:17.591Z,6.07
2022-11-25T07:46:51.622Z,7.87
2022-11-25T07:49:21.579Z,8.37
2022-11-25T07:51:59.764Z,5.60
2022-11-25T07:54:26.923Z,6.40
2022-11-25T07:56:53.958Z,5.50
2022-11-25T07:59:22.845Z,5.63
2022-11-25T08:01:51.203Z,6.57
2022-11-25T08:04:20.824Z,5.33
2022-11-25T08:06:50.800Z,5.03
2022-11-25T08:09:21.436Z,4.83
2022-11-25T08:11:49.004Z,4.80
2022-11-25T08:14:16.457Z,5.70
2022-11-25T08:16:43.708Z,6.77
2022-11-25T08:19:14.336Z,5.90
2022-11-25T08:21:41.934Z,5.73
2022-11-25T08:24:17.936Z,7.30
2022-11-25T08:26:46.078Z,5.90
2022-11-25T08:29:15.551Z,5.90
2022-11-25T08:31:43.152Z,5.40
2022-11-25T08:34:16.995Z,6.77
2022-11-25T08:36:48.191Z,6.20
2022-11-25T08:39:44.280Z,5.87
2022-11-25T08:42:05.500Z,5.50
2022-11-25T08:44:32.614Z,6.10
2022-11-25T08:47:00.115Z,5.17
2022-11-25T08:49:31.179Z,4.63
2022-11-25T08:52:00.712Z,5.53
2022-11-25T08:54:28.164Z,4.27
2022-11-25T08:56:55.153Z,5.33
2022-11-25T08:59:22.937Z,4.23
2022-11-25T09:01:50.525Z,4.47
2022-11-25T09:04:18.021Z,4.67
2022-11-25T09:06:45.485Z,3.83
2022-11-25T09:09:12.971Z,4.20
2022-11-25T09:11:40.804Z,4.07
2022-11-25T09:14:08.531Z,5.07
2022-11-25T09:16:36.027Z,4.87
2022-11-25T09:19:04.219Z,4.07
2022-11-25T09:21:31.457Z,4.37
2022-11-25T09:23:58.867Z,3.57
2022-11-25T09:26:28.723Z,3.80
2022-11-25T09:28:56.561Z,3.97
2022-11-25T09:31:24.251Z,4.30
2022-11-25T09:33:51.728Z,4.53
2022-11-25T09:36:20.339Z,4.83
2022-11-25T09:38:47.690Z,3.67
2022-11-25T09:41:47.113Z,3.83
2022-11-25T09:44:49.449Z,4.30
2022-11-25T09:47:55.677Z,4.97
2022-11-25T09:50:24.898Z,4.70
2022-11-25T09:53:03.980Z,4.80
2022-11-25T09:55:39.665Z,5.03
2022-11-25T09:58:41.874Z,5.57
2022-11-25T10:01:17.015Z,4.63
2022-11-25T10:04:04.459Z,6.37
2022-11-25T10:06:36.852Z,5.77
2022-11-25T10:09:13.386Z,4.97
2022-11-25T10:12:19.253Z,5.00
2022-11-25T10:14:49.705Z,5.03
2022-11-25T10:17:38.325Z,5.93
2022-11-25T10:20:25.785Z,5.20
2022-11-25T10:22:57.793Z,4.07
2022-11-25T10:25:30.939Z,4.37
2022-11-25T10:28:21.098Z,5.00
2022-11-25T10:31:04.502Z,4.60
2022-11-25T10:33:31.908Z,4.40
2022-11-25T10:35:59.282Z,4.53
2022-11-25T10:38:32.173Z,4.30
2022-11-25T10:40:59.790Z,4.97
2022-11-25T10:43:31.527Z,4.60
2022-11-25T10:45:59.825Z,5.00
2022-11-25T10:49:02.819Z,3.97
2022-11-25T10:51:44.387Z,3.80
2022-11-25T10:54:14.471Z,6.30
2022-11-25T10:56:53.394Z,4.80
2022-11-25T10:59:29.544Z,4.10
2022-11-25T11:02:28.876Z,4.23
2022-11-25T11:04:56.280Z,4.17
2022-11-25T11:07:24.419Z,5.23
2022-11-25T11:09:52.309Z,4.40
2022-11-25T11:12:25.982Z,4.83
2022-11-25T11:15:14.257Z,3.90
2022-11-25T11:17:41.421Z,5.63
2022-11-25T11:20:08.868Z,4.77
2022-11-25T11:22:44.608Z,4.83
2022-11-25T11:25:20.590Z,4.83
2022-11-25T11:27:48.224Z,5.23
2022-11-25T11:30:20.416Z,4.43
2022-11-25T11:33:01.116Z,4.67
2022-11-25T11:35:49.539Z,5.23
2022-11-25T11:38:33.507Z,5.17
2022-11-25T11:41:22.738Z,5.00
2022-11-25T11:44:06.552Z,4.80
2022-11-25T11:46:34.006Z,4.83
2022-11-25T11:49:33.546Z,5.43
2022-11-25T11:52:00.942Z,6.13
2022-11-25T11:54:36.200Z,5.87
2022-11-25T11:57:11.403Z,6.13
2022-11-25T11:59:53.501Z,7.30
2022-11-25T12:02:55.505Z,7.43
2022-11-25T12:05:27.485Z,6.83
2022-11-25T12:08:18.460Z,8.03
2022-11-25T12:10:53.425Z,7.80
2022-11-25T12:13:28.162Z,7.90
2022-11-25T12:16:02.133Z,7.87
2022-11-25T12:19:10.419Z,9.43
2022-11-25T12:22:02.202Z,8.63
2022-11-25T12:24:51.046Z,8.27
2022-11-25T12:27:32.176Z,9.30
2022-11-25T12:30:07.909Z,9.00
2022-11-25T12:32:37.747Z,7.37
2022-11-25T12:35:15.533Z,9.83
2022-11-25T12:38:04.612Z,10.63
2022-11-25T12:40:57.788Z,8.20
2022-11-25T12:43:40.585Z,9.73
2022-11-25T12:46:26.312Z,9.93
2022-11-25T12:48:56.826Z,8.93
2022-11-25T12:51:35.872Z,8.90
2022-11-25T12:54:03.767Z,8.40
2022-11-25T12:57:00.263Z,10.83
2022-11-25T12:59:48.523Z,8.53
2022-11-25T13:02:49.934Z,8.37
2022-11-25T13:05:52.991Z,8.73
2022-11-25T13:08:47.486Z,8.47
2022-11-25T13:11:41.902Z,9.63
2022-11-25T13:15:02.119Z,9.97
2022-11-25T13:17:32.575Z,9.30
2022-11-25T13:20:27.937Z,8.83
2022-11-25T13:23:24.175Z,9.47
2022-11-25T13:25:53.649Z,9.43
2022-11-25T13:28:35.786Z,9.83
2022-11-25T13:31:33.702Z,9.17
2022-11-25T13:34:31.041Z,8.73
2022-11-25T13:37:00.348Z,8.50
2022-11-25T13:39:36.031Z,10.00
2022-11-25T13:42:27.402Z,8.00
2022-11-25T13:45:00.342Z,9.07
2022-11-25T13:47:40.171Z,9.00
2022-11-25T13:50:21.810Z,8.67
2022-11-25T13:53:01.339Z,8.87
2022-11-25T13:55:39.840Z,8.80
2022-11-25T13:58:07.271Z,8.57
2022-11-25T14:00:34.628Z,9.50
2022-11-25T14:03:28.157Z,9.20
2022-11-25T14:06:07.646Z,9.63
2022-11-25T14:08:53.707Z,9.23
2022-11-25T14:11:40.668Z,9.60
2022-11-25T14:14:46.513Z,10.17
2022-11-25T14:17:22.115Z,9.70
2022-11-25T14:20:24.868Z,11.10
2022-11-25T14:23:23.798Z,10.60
2022-11-25T14:26:01.572Z,10.33
2022-11-25T14:28:51.086Z,11.63
2022-11-25T14:31:27.233Z,11.33
2022-11-25T14:34:00.814Z,10.60
2022-11-25T14:36:33.763Z,10.80
2022-11-25T14:39:09.023Z,10.80
2022-11-25T14:41:41.919Z,10.90
2022-11-25T14:44:17.588Z,11.93
2022-11-25T14:46:55.789Z,10.27
2022-11-25T14:52:11.637Z,10.57
2022-11-25T14:54:44.360Z,9.60
2022-11-25T14:57:11.975Z,8.97
2022-11-25T14:59:43.742Z,8.70
2022-11-25T15:02:28.182Z,10.83
2022-11-25T15:05:21.975Z,9.57
2022-11-25T15:08:17.509Z,9.03
2022-11-25T15:10:44.868Z,10.33
2022-11-25T15:13:24.812Z,9.47
2022-11-25T15:15:53.674Z,10.53
2022-11-25T15:18:24.611Z,9.60
2022-11-25T15:20:57.359Z,8.83
2022-11-25T15:23:34.708Z,10.57
2022-11-25T15:26:03.229Z,8.43
2022-11-25T15:28:38.507Z,7.97
2022-11-25T15:31:11.000Z,8.07
2022-11-25T15:33:38.642Z,8.40
2022-11-25T15:36:06.115Z,8.63
2022-11-25T15:38:44.830Z,8.17
2022-11-25T15:41:31.292Z,8.10
2022-11-25T15:44:01.812Z,7.93
2022-11-25T15:46:30.791Z,7.93
2022-11-25T15:49:01.172Z,8.33
2022-11-25T15:51:44.656Z,8.00
2022-11-25T15:54:17.647Z,8.73
2022-11-25T15:57:03.229Z,7.10
2022-11-25T15:59:58.962Z,7.73
2022-11-25T16:02:44.151Z,8.07
2022-11-25T16:05:14.369Z,8.77
2022-11-25T16:07:58.191Z,8.60
2022-11-25T16:10:33.820Z,8.33
2022-11-25T16:13:21.148Z,8.93
2022-11-25T16:15:49.117Z,10.00
2022-11-25T16:18:39.139Z,9.17
2022-11-25T16:21:26.992Z,13.00
2022-11-25T16:23:59.687Z,11.60
2022-11-25T16:26:36.515Z,9.10
2022-11-25T16:29:26.000Z,9.20
2022-11-25T16:31:53.422Z,8.87
2022-11-25T16:34:24.103Z,9.50
2022-11-25T16:36:51.626Z,12.20
2022-11-25T16:39:19.071Z,9.33
2022-11-25T16:41:55.916Z,8.20
2022-11-25T16:44:25.358Z,8.73
2022-11-25T16:46:53.347Z,9.37
2022-11-25T16:49:22.347Z,12.73
2022-11-25T16:51:50.692Z,12.10
2022-11-25T16:54:21.772Z,10.47
2022-11-25T16:56:51.533Z,8.87
2022-11-25T16:59:28.910Z,8.47
2022-11-25T17:01:56.617Z,8.23
2022-11-25T17:04:24.060Z,8.43
2022-11-25T17:07:24.148Z,7.57
2022-11-25T17:09:39.620Z,8.07
2022-11-25T17:12:13.700Z,8.70
2022-11-25T17:14:41.989Z,8.23
2022-11-25T17:17:12.599Z,8.13
2022-11-25T17:19:40.682Z,8.60
2022-11-25T17:22:18.533Z,6.97
2022-11-25T17:24:46.429Z,7.10
2022-11-25T17:27:23.996Z,7.00
2022-11-25T17:29:52.512Z,8.43
2022-11-25T17:32:20.172Z,9.97
2022-11-25T17:34:47.586Z,14.03
2022-11-25T17:37:16.600Z,13.33
2022-11-25T17:39:44.106Z,15.87
2022-11-25T17:42:19.524Z,17.30
2022-11-25T17:44:51.229Z,14.17
2022-11-25T17:47:20.499Z,11.13
2022-11-25T17:49:49.447Z,13.17
2022-11-25T17:52:17.055Z,10.80
2022-11-25T17:54:44.597Z,8.70
2022-11-25T17:57:17.312Z,9.17
2022-11-25T17:59:44.796Z,10.73
2022-11-25T18:02:18.638Z,11.53
2022-11-25T18:04:46.234Z,9.70
2022-11-25T18:07:13.737Z,7.80
2022-11-25T18:09:41.260Z,8.37
2022-11-25T18:12:18.658Z,7.23
2022-11-25T18:14:46.313Z,8.00
2022-11-25T18:17:17.369Z,8.13
2022-11-25T18:19:48.554Z,7.40
2022-11-25T18:22:19.743Z,7.27
2022-11-25T18:24:47.204Z,7.03
2022-11-25T18:27:22.033Z,7.03
2022-11-25T18:29:49.653Z,6.93
2022-11-25T18:32:17.155Z,6.90
2022-11-25T18:34:44.823Z,5.77
2022-11-25T18:37:12.346Z,6.97
2022-11-25T18:39:40.084Z,6.67
2022-11-25T18:42:14.595Z,7.57
2022-11-25T18:44:44.456Z,7.60
2022-11-25T18:47:12.210Z,10.43
2022-11-25T18:49:39.627Z,8.97
2022-11-25T18:52:06.986Z,9.63
2022-11-25T18:54:34.621Z,8.37
2022-11-25T18:57:02.178Z,9.73
2022-11-25T18:59:34.916Z,9.33
2022-11-25T19:02:02.263Z,10.50
2022-11-25T19:04:30.091Z,13.70
2022-11-25T19:06:57.748Z,8.10
2022-11-25T19:09:24.843Z,10.50
2022-11-25T19:11:57.505Z,8.50
2022-11-25T19:14:37.362Z,10.00
2022-11-25T19:17:08.364Z,9.27
2022-11-25T19:19:37.890Z,10.27
2022-11-25T19:22:15.881Z,11.23
2022-11-25T19:24:46.233Z,10.10
2022-11-25T19:27:20.108Z,9.20
2022-11-25T19:29:49.167Z,9.00
2022-11-25T19:32:20.950Z,8.60
2022-11-25T19:35:01.082Z,9.70
2022-11-25T19:37:30.168Z,9.40
2022-11-25T19:39:57.645Z,9.83
2022-11-25T19:42:25.764Z,15.33
2022-11-25T19:44:53.149Z,10.03
2022-11-25T19:47:22.909Z,11.03
2022-11-25T19:49:56.821Z,11.50
2022-11-25T19:52:30.638Z,9.83
2022-11-25T19:54:58.193Z,15.87
2022-11-25T19:57:25.849Z,12.40
2022-11-25T19:59:53.411Z,14.33
2022-11-25T20:02:23.458Z,9.90
2022-11-25T20:04:53.653Z,12.77
2022-11-25T20:07:21.806Z,12.00
2022-11-25T20:09:51.607Z,11.97
2022-11-25T20:12:29.771Z,12.90
2022-11-25T20:14:57.254Z,12.73
2022-11-25T20:17:31.334Z,11.03
2022-11-25T20:20:11.272Z,12.70
2022-11-25T20:22:41.546Z,11.30
2022-11-25T20:25:10.601Z,10.80
2022-11-25T20:27:37.846Z,9.30
2022-11-25T20:30:16.659Z,10.30
2022-11-25T20:32:44.248Z,12.80
2022-11-25T20:35:12.100Z,10.53
2022-11-25T20:37:50.763Z,11.90
2022-11-25T20:40:23.591Z,12.20
2022-11-25T20:42:51.264Z,11.20
2022-11-25T20:45:21.859Z,11.87
2022-11-25T20:47:51.014Z,12.30
2022-11-25T20:50:19.584Z,12.37
2022-11-25T20:52:50.591Z,12.77
2022-11-25T20:55:18.361Z,12.67
2022-11-25T20:57:46.116Z,13.73
2022-11-25T21:00:24.301Z,13.93
2022-11-25T21:02:52.007Z,15.13
2022-11-25T21:05:19.747Z,15.47
2022-11-25T21:07:48.874Z,17.37
2022-11-25T21:10:27.161Z,14.03
2022-11-25T21:12:55.058Z,16.30
2022-11-25T21:15:31.810Z,14.97
2022-11-25T21:18:00.771Z,15.77
2022-11-25T21:20:28.348Z,16.17
2022-11-25T21:23:05.584Z,17.60
2022-11-25T21:25:33.914Z,17.83
2022-11-25T21:28:01.760Z,16.33
2022-11-25T21:30:31.173Z,16.20
2022-11-25T21:33:00.988Z,18.13
2022-11-25T21:35:34.208Z,15.97
2022-11-25T21:38:07.105Z,17.83
2022-11-25T21:40:44.246Z,15.70
2022-11-25T21:43:21.679Z,16.60
2022-11-25T21:45:52.348Z,16.77
2022-11-25T21:48:25.045Z,14.90
2022-11-25T21:50:52.819Z,16.33
2022-11-25T21:53:20.442Z,16.93
2022-11-25T21:55:48.264Z,16.97
2022-11-25T21:58:20.607Z,19.47
2022-11-25T22:00:57.324Z,22.30
2022-11-25T22:03:26.264Z,18.70
2022-11-25T22:05:53.612Z,19.73
2022-11-25T22:08:21.114Z,18.30
2022-11-25T22:10:54.656Z,18.87
2022-11-25T22:13:27.383Z,18.80
2022-11-25T22:15:57.664Z,21.03
2022-11-25T22:18:35.304Z,19.80
2022-11-25T22:21:02.769Z,19.83
2022-11-25T22:23:30.260Z,19.50
2022-11-25T22:25:57.832Z,19.63
2022-11-25T22:28:28.616Z,18.83
2022-11-25T22:30:58.470Z,21.23
2022-11-25T22:33:32.437Z,22.83
2022-11-25T22:35:59.802Z,21.37
2022-11-25T22:38:28.105Z,20.10
2022-11-25T22:41:09.923Z,20.77
2022-11-25T22:43:44.800Z,19.60
2022-11-25T22:46:12.196Z,21.67
2022-11-25T22:48:39.698Z,22.27
2022-11-25T22:51:16.385Z,21.13
2022-11-25T22:53:43.774Z,28.42
2022-11-25T22:56:16.877Z,24.73
2022-11-25T22:58:44.332Z,23.77
2022-11-25T23:01:16.527Z,23.13
2022-11-25T23:03:44.490Z,23.33
2022-11-25T23:06:14.262Z,23.43
2022-11-25T23:08:41.972Z,23.97
2022-11-25T23:11:17.486Z,24.27
2022-11-25T23:13:44.896Z,35.20
2022-11-25T23:16:12.675Z,30.00
2022-11-25T23:18:42.954Z,26.07
2022-11-25T23:21:22.731Z,25.67
2022-11-25T23:23:50.699Z,26.23
2022-11-25T23:26:18.077Z,26.20
2022-11-25T23:28:45.559Z,24.83
2022-11-25T23:31:14.690Z,26.53
2022-11-25T23:33:45.153Z,25.87
2022-11-25T23:36:12.471Z,28.50
2022-11-25T23:38:47.164Z,29.80
2022-11-25T23:41:17.024Z,26.30
2022-11-25T23:43:44.542Z,25.77
2022-11-25T23:46:14.811Z,28.83
2022-11-25T23:48:45.299Z,25.50
2022-11-25T23:51:12.827Z,28.67
2022-11-25T23:53:41.057Z,28.63
2022-11-25T23:56:08.780Z,28.70
2022-11-25T23:58:36.404Z,27.47
